createdAt,value
2023-04-04T00:02:42.276Z,62.22
2023-04-04T00:09:24.467Z,59.85
2023-04-04T00:16:07.281Z,60.32
2023-04-04T00:22:49.540Z,59.77
2023-04-04T00:29:34.309Z,60.10
2023-04-04T00:36:17.488Z,61.47
2023-04-04T00:43:00.562Z,61.76
2023-04-04T00:49:43.529Z,61.92
2023-04-04T00:56:26.128Z,61.38
2023-04-04T01:03:12.644Z,61.52
2023-04-04T01:09:58.225Z,61.40
2023-04-04T01:16:41.991Z,61.87
2023-04-04T01:23:54.018Z,62.78
2023-04-04T01:30:40.738Z,63.35
2023-04-04T01:37:44.629Z,63.69
2023-04-04T01:44:27.799Z,64.67
2023-04-04T01:51:10.357Z,65.48
2023-04-04T01:57:52.816Z,65.02
2023-04-04T02:04:35.382Z,64.40
2023-04-04T02:11:17.713Z,64.02
2023-04-04T02:18:01.984Z,64.36
2023-04-04T02:24:44.606Z,64.54
2023-04-04T02:31:27.324Z,64.50
2023-04-04T02:38:10.000Z,64.07
2023-04-04T02:44:56.897Z,64.09
2023-04-04T02:51:39.345Z,62.59
2023-04-04T02:58:22.565Z,61.41
2023-04-04T03:05:05.705Z,60.93
2023-04-04T03:11:48.152Z,60.15
2023-04-04T03:18:30.683Z,59.48
2023-04-04T03:25:13.151Z,58.96
2023-04-04T03:31:55.522Z,57.80
2023-04-04T03:38:38.584Z,58.45
2023-04-04T03:45:21.889Z,59.16
2023-04-04T03:52:04.419Z,60.00
2023-04-04T03:58:48.571Z,60.33
2023-04-04T04:05:34.949Z,61.31
2023-04-04T04:12:17.316Z,61.24
2023-04-04T04:18:59.709Z,60.51
2023-04-04T04:25:51.831Z,60.22
2023-04-04T04:32:37.776Z,60.96
2023-04-04T04:39:20.676Z,61.51
2023-04-04T04:46:18.855Z,61.86
2023-04-04T04:53:01.645Z,62.13
2023-04-04T04:59:44.250Z,61.14
2023-04-04T05:06:29.079Z,61.14
2023-04-04T05:13:12.135Z,60.13
2023-04-04T05:19:58.812Z,60.83
2023-04-04T05:26:41.424Z,61.15
2023-04-04T05:33:23.834Z,61.81
2023-04-04T05:40:16.256Z,61.65
2023-04-04T05:47:02.273Z,62.12
2023-04-04T05:53:45.801Z,61.00
2023-04-04T06:00:33.224Z,60.86
2023-04-04T06:07:21.404Z,59.80
2023-04-04T06:14:05.619Z,59.12
2023-04-04T06:20:47.839Z,57.27
2023-04-04T06:27:31.927Z,57.37
2023-04-04T06:34:16.668Z,57.62
2023-04-04T06:41:08.398Z,58.80
2023-04-04T06:47:53.527Z,57.34
2023-04-04T06:54:35.942Z,56.65
2023-04-04T07:01:18.489Z,55.20
2023-04-04T07:08:01.815Z,56.40
2023-04-04T07:14:44.004Z,56.80
2023-04-04T07:21:26.105Z,56.89
2023-04-04T07:28:12.786Z,55.54
2023-04-04T07:34:55.698Z,55.48
2023-04-04T07:41:37.847Z,54.19
2023-04-04T07:48:21.691Z,51.66
2023-04-04T07:55:07.429Z,50.25
2023-04-04T08:01:49.844Z,47.69
2023-04-04T08:08:32.359Z,47.16
2023-04-04T08:15:14.853Z,47.21
2023-04-04T08:21:57.709Z,47.59
2023-04-04T08:28:39.990Z,49.23
2023-04-04T08:35:22.210Z,50.67
2023-04-04T08:42:07.542Z,53.30
2023-04-04T08:48:51.584Z,54.33
2023-04-04T08:55:33.846Z,53.15
2023-04-04T09:03:04.388Z,53.86
2023-04-04T09:09:47.920Z,53.13
2023-04-04T09:16:31.141Z,52.44
2023-04-04T09:23:20.285Z,54.46
2023-04-04T09:30:05.447Z,53.53
2023-04-04T09:36:48.518Z,53.27
2023-04-04T09:43:32.301Z,51.48
2023-04-04T09:50:23.693Z,51.19
2023-04-04T09:57:07.916Z,48.23
2023-04-04T10:03:54.899Z,46.40
2023-04-04T10:11:06.477Z,45.91
2023-04-04T10:17:55.572Z,47.35
2023-04-04T10:24:37.742Z,44.34
2023-04-04T10:31:25.782Z,44.44
2023-04-04T10:38:08.518Z,43.62
2023-04-04T10:44:51.295Z,43.40
2023-04-04T10:51:39.418Z,43.49
2023-04-04T10:58:29.136Z,42.66
2023-04-04T11:05:22.878Z,42.50
2023-04-04T11:12:10.049Z,42.30
2023-04-04T11:18:52.575Z,42.47
2023-04-04T11:25:37.684Z,43.38
2023-04-04T11:32:50.159Z,43.45
2023-04-04T11:39:59.135Z,43.00
2023-04-04T11:46:41.602Z,42.00
2023-04-04T11:53:23.788Z,42.26
2023-04-04T12:00:08.902Z,40.52
2023-04-04T12:06:56.636Z,41.51
2023-04-04T12:13:44.858Z,41.38
2023-04-04T12:20:27.257Z,40.40
2023-04-04T12:27:09.798Z,40.17
2023-04-04T12:33:52.119Z,40.98
2023-04-04T12:40:37.579Z,40.82
2023-04-04T12:47:22.461Z,41.79
2023-04-04T12:54:06.838Z,42.50
2023-04-04T13:00:52.612Z,42.22
2023-04-04T13:07:43.634Z,41.87
2023-04-04T13:14:48.974Z,41.13
2023-04-04T13:21:31.329Z,41.12
2023-04-04T13:28:14.395Z,40.73
2023-04-04T13:34:56.623Z,40.73
2023-04-04T13:41:38.823Z,40.36
2023-04-04T13:48:21.234Z,39.77
2023-04-04T13:55:06.054Z,41.63
2023-04-04T14:01:48.347Z,41.58
2023-04-04T14:08:31.243Z,41.55
2023-04-04T14:15:14.978Z,39.88
2023-04-04T14:22:02.297Z,39.67
2023-04-04T14:28:44.572Z,40.53
2023-04-04T14:35:26.810Z,40.28
2023-04-04T14:42:09.373Z,40.45
2023-04-04T14:48:53.256Z,41.01
2023-04-04T14:55:35.652Z,41.58
2023-04-04T15:02:22.169Z,41.91
2023-04-04T15:09:08.773Z,41.02
2023-04-04T15:15:50.936Z,41.05
2023-04-04T15:22:33.175Z,41.18
2023-04-04T15:29:15.745Z,42.54
2023-04-04T15:35:57.910Z,43.25
2023-04-04T15:42:40.033Z,43.69
2023-04-04T15:49:22.224Z,43.91
2023-04-04T15:56:04.606Z,42.76
2023-04-04T16:02:46.997Z,42.73
2023-04-04T16:09:29.533Z,40.46
2023-04-04T16:16:11.878Z,40.86
2023-04-04T16:22:55.018Z,41.50
2023-04-04T16:29:38.205Z,42.18
2023-04-04T16:36:20.556Z,42.52
2023-04-04T16:43:02.737Z,43.48
2023-04-04T16:49:47.174Z,43.54
2023-04-04T16:56:30.676Z,44.72
2023-04-04T17:03:12.853Z,45.81
2023-04-04T17:09:55.454Z,46.61
2023-04-04T17:16:37.672Z,47.96
2023-04-04T17:23:19.900Z,49.27
2023-04-04T17:30:04.045Z,50.24
2023-04-04T17:36:46.516Z,50.94
2023-04-04T17:43:30.133Z,51.19
2023-04-04T17:50:12.663Z,51.23
2023-04-04T17:56:54.855Z,51.26
2023-04-04T18:03:37.536Z,50.59
2023-04-04T18:10:20.619Z,50.89
2023-04-04T18:17:03.019Z,51.04
2023-04-04T18:23:45.583Z,51.65
2023-04-04T18:30:28.126Z,52.83
2023-04-04T18:37:12.355Z,54.36
2023-04-04T18:43:54.737Z,55.08
2023-04-04T18:50:37.126Z,56.09
2023-04-04T18:57:19.854Z,56.49
2023-04-04T19:04:04.299Z,57.20
2023-04-04T19:10:51.037Z,57.34
2023-04-04T19:17:33.542Z,56.43
2023-04-04T19:24:15.720Z,56.86
2023-04-04T19:31:11.089Z,57.20
2023-04-04T19:37:53.306Z,57.63
2023-04-04T19:44:40.896Z,60.73
2023-04-04T19:51:23.021Z,61.52
2023-04-04T19:58:05.995Z,61.41
2023-04-04T20:04:48.443Z,61.33
2023-04-04T20:11:35.940Z,59.67
2023-04-04T20:18:25.246Z,58.71
2023-04-04T20:25:32.896Z,58.03
2023-04-04T20:32:16.164Z,57.76
2023-04-04T20:38:58.956Z,57.71
2023-04-04T20:45:45.045Z,58.12
2023-04-04T20:52:27.340Z,58.24
2023-04-04T20:59:27.785Z,58.31
2023-04-04T21:06:14.441Z,58.70
2023-04-04T21:12:59.085Z,59.19
2023-04-04T21:19:41.447Z,59.77
2023-04-04T21:26:35.804Z,60.08
2023-04-04T21:33:19.281Z,60.49
2023-04-04T21:40:01.772Z,60.41
2023-04-04T21:46:44.231Z,61.04
2023-04-04T21:53:26.497Z,61.44
2023-04-04T22:00:09.809Z,61.74
2023-04-04T22:06:52.042Z,61.80
2023-04-04T22:13:34.711Z,62.04
2023-04-04T22:20:19.743Z,61.71
2023-04-04T22:27:03.919Z,61.89
2023-04-04T22:33:46.130Z,62.01
2023-04-04T22:40:29.214Z,61.97
2023-04-04T22:47:12.068Z,62.06
2023-04-04T22:53:57.976Z,62.23
2023-04-04T23:00:40.355Z,62.26
2023-04-04T23:07:23.079Z,62.68
2023-04-04T23:14:09.971Z,62.46
2023-04-04T23:20:53.052Z,62.27
2023-04-04T23:27:35.433Z,62.23
2023-04-04T23:34:17.652Z,61.96
2023-04-04T23:40:59.758Z,62.26
2023-04-04T23:47:42.155Z,61.89
2023-04-04T23:54:24.516Z,61.82
